Portada
METAR-TAF:

METAR-TAF

Aeroports :

Savannakhet, Laos

latitud: 16-33-24N, longitud: 104-45-34E, altitud: 155 m

Observació

L'informe es va fer fa 15 minuts, a les 09:00 UTC
Vent 2 kt del Sud-Oest
Temperatura 33°C
Humitat 44%
Pressió 1004 hPa
Visibilitat: 8000 m
Núvols disperses a una alçada de 2000 ft
Núvols disperses a una alçada de 10000 ft

METAR: VLSK 080900Z 22002KT 8000 SCT020 SCT100 33/19 Q1004 NOSIG

Hora: 16:15 (09:15 UTC)

Pronòstic

L'informe es va fer fa 10 hores i 15 minuts, a les 23:00 UTC
Pronòstic vàlid del 08 a les 00 UTC al 08 a les 24 UTC
Vent 4 kt del Sud
Visibilitat: 9000 m
Núvols disperses a una alçada de 2000 ft
Núvols disperses a una alçada de 10000 ft

TAF: VLSK 072300Z 0800/0824 18004KT 9000 SCT020 SCT100

Observacions i pronòstics meteorològics de més de 4000 aeroports (METAR i TAF).

Les estacions disponibles són els punts grocs i vermells al mapa.

Posi el ratolí al punt desitjat per veure el nom de l'estació.

Feu clic per veure les observacions i els pronòstics meteorològics.

Per canviar el mapa: feu clic els botons verds amb una creu de color negre per apropar; al botó verd amb un guió per allunyar la imatge; o en les fletxes verdes per a mapes adjacents.


METAR-TAF: